Laketon, Indiana
Current Conditions -  °F | °C
As of 4:35 PM on Friday 24 Oct 2014 (Local Time) from KRCR Reporting Station
Scattered Clouds Scattered Clouds  
Wind Chill: 19°   Ceiling: Unl
Heat Index: 19°   Visibility: 10mi
Dew Point: 11°   Wind: 12mph
Humidity: 60%   Direction: 230°SW
Pressure: 30"   Gusts: NA
Location:  40.97°N, 85.84°W
Report Text: KRCR 242035Z AUTO 23010KT 10SM SCT034 19/11 A3000 RMK AO2
Loading
Personal Weather Stations






























Interactive Weather Map
Tropical Storm Tracking
New forecast layout! Learn more

10-Day Weather Forecast

Advertisements
Track Severe Weather on mobile